Time;durP1;ratioP1;P1;durP2;ratioP2;P2;SDS_P1;SDS_P2;PMS_P1;PMS_P2;Temp;Humidity;BMP_temperature;BMP_pressure;BME280_temperature;BME280_humidity;BME280_pressure;Samples;Min_cycle;Max_cycle;Signal;HPM_P1;HPM_P2
2022/09/25 00:00:55;;;;;;;;;;;;;;;12.59;94.49;98920.81;8198673;28;19961;-77
2022/09/25 00:04:56;;;;;;;;;;;;;;;12.59;94.34;98922.56;8201078;28;19937;-77
2022/09/25 00:08:59;;;;;;;;;;;;;;;12.57;94.32;98919.97;8201630;28;20638;-78
2022/09/25 00:13:00;;;;;;;;;;;;;;;12.57;94.13;98919.97;8185261;28;19957;-77
2022/09/25 00:17:02;;;;;;;;;;;;;;;12.52;94.31;98919.19;8217944;28;20555;-77
2022/09/25 00:21:04;;;;;;;;;;;;;;;12.47;94.61;98935.81;8203075;28;19973;-77
2022/09/25 00:25:06;;;;;;;;;;;;;;;12.42;94.48;98929.84;8188247;28;19926;-77
2022/09/25 00:29:16;;;;;;;;;;;;;;;12.42;94.34;98919.41;8203151;28;19961;-77
2022/09/25 00:33:18;;;;;;;;;;;;;;;12.45;95.04;98917.59;8186283;28;19938;-77
2022/09/25 00:37:19;;;;;;;;;;;;;;;12.43;95.33;98918.53;8211672;28;20008;-78
2022/09/25 00:41:22;;;;;;;;;;;;;;;12.39;95.40;98910.78;8217253;28;19926;-77
2022/09/25 00:45:29;;;;;;;;;;;;;;;12.40;95.26;98916.84;8216720;28;20985;-77
2022/09/25 00:49:31;;;;;;;;;;;;;;;12.34;95.43;98919.56;8205594;28;19925;-77
2022/09/25 00:53:35;;;;;;;;;;;;;;;12.36;95.19;98917.78;8218971;28;19930;-76
2022/09/25 00:57:37;;;;;;;;;;;;;;;12.36;94.79;98922.97;8202803;28;19926;-77
2022/09/25 01:01:39;;;;;;;;;;;;;;;12.32;95.11;98922.19;8219954;28;19989;-77
2022/09/25 01:05:43;;;;;;;;;;;;;;;12.28;95.22;98917.94;8202946;28;19933;-77
2022/09/25 01:09:45;;;;;;;;;;;;;;;12.28;95.62;98922.28;8204085;28;19988;-77
2022/09/25 01:13:46;;;;;;;;;;;;;;;12.29;95.85;98908.38;8220442;28;20335;-78
2022/09/25 01:17:53;;;;;;;;;;;;;;;12.31;95.62;98902.25;8215938;28;19930;-77
2022/09/25 01:22:03;;;;;;;;;;;;;;;12.32;95.43;98911.78;8201868;28;19926;-77
2022/09/25 01:26:24;;;;;;;;;;;;;;;12.29;95.30;98909.22;8202259;28;19929;-77
2022/09/25 01:30:25;;;;;;;;;;;;;;;12.29;95.58;98909.22;8216815;28;20363;-77
2022/09/25 01:34:40;;;;;;;;;;;;;;;12.32;95.38;98908.31;8216667;28;19936;-77
2022/09/25 01:38:55;;;;;;;;;;;;;;;12.33;95.01;98894.41;8206384;28;19976;-77
2022/09/25 01:43:03;;;;;;;;;;;;;;;12.34;95.22;98893.50;8221204;28;20311;-77
2022/09/25 01:47:08;;;;;;;;;;;;;;;12.33;94.83;98899.63;8226404;28;19983;-77
2022/09/25 01:51:13;;;;;;;;;;;;;;;12.35;95.12;98895.22;8253855;28;20363;-77
2022/09/25 01:55:44;;;;;;;;;;;;;;;12.34;94.39;98890.91;8258954;28;19926;-77
2022/09/25 01:59:58;;;;;;;;;;;;;;;12.34;94.69;98885.72;8254884;28;19946;-77
2022/09/25 02:04:06;;;;;;;;;;;;;;;12.33;94.63;98878.78;8243195;28;19957;-77
2022/09/25 02:08:21;;;;;;;;;;;;;;;12.31;94.13;98876.22;8258443;28;19926;-77
2022/09/25 02:12:33;;;;;;;;;;;;;;;12.28;93.78;98873.69;8246245;28;20375;-77
2022/09/25 02:16:37;;;;;;;;;;;;;;;12.24;93.78;98871.16;8256167;28;20043;-77
2022/09/25 02:20:41;;;;;;;;;;;;;;;12.21;93.64;98876.41;8244232;28;19930;-77
2022/09/25 02:24:56;;;;;;;;;;;;;;;12.20;94.06;98869.50;8247270;28;19929;-77
2022/09/25 02:29:01;;;;;;;;;;;;;;;12.17;93.57;98870.41;8231208;28;19925;-77
2022/09/25 02:33:02;;;;;;;;;;;;;;;12.16;93.52;98876.50;8258787;28;19934;-77
2022/09/25 02:37:11;;;;;;;;;;;;;;;12.14;93.53;98872.22;8239634;28;19953;-77
2022/09/25 02:41:30;;;;;;;;;;;;;;;12.12;93.96;98867.06;8226697;28;19926;-77
2022/09/25 02:45:40;;;;;;;;;;;;;;;12.07;94.13;98867.16;8238331;28;19932;-76
2022/09/25 02:49:48;;;;;;;;;;;;;;;12.05;94.02;98870.66;8224188;28;19961;-77
2022/09/25 02:54:12;;;;;;;;;;;;;;;12.02;93.69;98878.50;8219944;28;19939;-77
2022/09/25 02:58:26;;;;;;;;;;;;;;;11.98;94.25;98874.25;8227199;28;19926;-77
2022/09/25 03:02:29;;;;;;;;;;;;;;;11.94;94.45;98878.66;8222756;28;19993;-77
2022/09/25 03:06:31;;;;;;;;;;;;;;;11.94;93.92;98875.19;8223122;28;19945;-77
2022/09/25 03:10:34;;;;;;;;;;;;;;;11.86;94.16;98877.09;8217810;28;19930;-76
2022/09/25 03:14:35;;;;;;;;;;;;;;;11.82;94.26;98880.59;8224618;28;19981;-77
2022/09/25 03:18:38;;;;;;;;;;;;;;;11.82;94.74;98881.47;8218019;28;19980;-77
2022/09/25 03:22:46;;;;;;;;;;;;;;;11.80;94.88;98875.44;8205488;28;19992;-77
2022/09/25 03:26:48;;;;;;;;;;;;;;;11.80;94.85;98878.91;8220953;28;20339;-76
2022/09/25 03:31:03;;;;;;;;;;;;;;;11.85;94.85;98880.56;8218545;28;19984;-77
2022/09/25 03:35:05;;;;;;;;;;;;;;;11.86;95.16;98877.94;8238270;28;19936;-77
2022/09/25 03:39:09;;;;;;;;;;;;;;;11.92;95.05;98883.03;8252345;28;20562;-77
2022/09/25 03:43:10;;;;;;;;;;;;;;;11.94;95.46;98889.06;8256848;28;20596;-77
2022/09/25 03:47:19;;;;;;;;;;;;;;;11.98;95.57;98879.44;8250212;28;19926;-77
2022/09/25 03:51:20;;;;;;;;;;;;;;;12.05;96.00;98887.13;8253989;28;19933;-77
2022/09/25 03:55:21;;;;;;;;;;;;;;;12.10;95.56;98885.28;8236047;28;19976;-77
2022/09/25 03:59:23;;;;;;;;;;;;;;;12.13;95.49;98884.38;8236032;28;19938;-77
2022/09/25 04:03:27;;;;;;;;;;;;;;;12.16;95.02;98881.72;8233933;28;19961;-77
2022/09/25 04:07:36;;;;;;;;;;;;;;;12.19;94.80;98880.78;8254522;28;19931;-77
2022/09/25 04:11:37;;;;;;;;;;;;;;;12.16;95.15;98884.31;8235635;28;19925;-77
2022/09/25 04:15:40;;;;;;;;;;;;;;;12.19;94.43;98880.78;8234916;28;20438;-77
2022/09/25 04:19:42;;;;;;;;;;;;;;;12.18;94.87;98879.94;8236422;28;19936;-77
2022/09/25 04:24:47;;;;;;;;;;;;;;;12.20;95.41;98872.94;8253854;28;19985;-77
2022/09/25 04:28:05;;;;;;;;;;;;;;;12.22;94.65;98878.16;8254104;28;20252;-77
2022/09/25 04:36:27;;;;;;;;;;;;;;;12.19;95.10;98872.97;8252069;28;19929;-77
2022/09/25 04:40:28;;;;;;;;;;;;;;;12.13;95.72;98881.78;8219824;28;19929;-78
2022/09/25 04:44:37;;;;;;;;;;;;;;;12.13;95.77;98880.91;8252108;28;20336;-77
2022/09/25 04:48:38;;;;;;;;;;;;;;;12.13;95.75;98883.53;8232144;28;19984;-78
2022/09/25 04:52:39;;;;;;;;;;;;;;;12.16;95.33;98891.25;8252433;28;19925;-76
2022/09/25 04:56:44;;;;;;;;;;;;;;;12.18;95.98;98889.50;8253679;28;20339;-77
2022/09/25 05:00:45;;;;;;;;;;;;;;;12.22;95.92;98891.16;8247500;28;19929;-77
2022/09/25 05:04:47;;;;;;;;;;;;;;;12.25;95.84;98891.97;8233775;28;20377;-77
2022/09/25 05:08:48;;;;;;;;;;;;;;;12.25;95.36;98896.31;8244584;28;20313;-77
2022/09/25 05:12:53;;;;;;;;;;;;;;;12.25;95.75;98907.59;8244530;28;19935;-77
2022/09/25 05:16:55;;;;;;;;;;;;;;;12.26;95.89;98903.22;8255218;28;19925;-77
2022/09/25 05:20:56;;;;;;;;;;;;;;;12.29;95.75;98901.44;8237442;28;19996;-77
2022/09/25 05:24:58;;;;;;;;;;;;;;;12.31;95.88;98909.19;8241132;28;19925;-77
2022/09/25 05:29:00;;;;;;;;;;;;;;;12.32;95.72;98900.50;8254256;28;19925;-75
2022/09/25 05:33:08;;;;;;;;;;;;;;;12.33;95.66;98910.03;8253833;28;19925;-77
2022/09/25 05:37:16;;;;;;;;;;;;;;;12.33;95.64;98910.88;8251266;28;19995;-77
2022/09/25 05:41:17;;;;;;;;;;;;;;;12.36;95.56;98907.34;8248656;28;19930;-77
2022/09/25 05:45:19;;;;;;;;;;;;;;;12.39;95.31;98907.31;8233365;28;19926;-77
2022/09/25 05:49:22;;;;;;;;;;;;;;;12.42;95.08;98909.00;8260130;28;19932;-77
2022/09/25 05:53:24;;;;;;;;;;;;;;;12.43;95.42;98919.38;8232440;28;19953;-77
2022/09/25 05:57:26;;;;;;;;;;;;;;;12.43;94.94;98911.56;8216704;28;19926;-77
2022/09/25 06:01:28;;;;;;;;;;;;;;;12.43;95.13;98914.19;8246884;28;19965;-77
2022/09/25 06:05:29;;;;;;;;;;;;;;;12.45;95.58;98919.34;8247997;28;20629;-77
2022/09/25 06:09:30;;;;;;;;;;;;;;;12.47;96.06;98917.56;8241561;28;20535;-77
2022/09/25 06:13:39;;;;;;;;;;;;;;;12.52;95.36;98929.59;8255423;28;20520;-77
2022/09/25 06:17:54;;;;;;;;;;;;;;;12.52;95.38;98929.59;8241129;28;19951;-77
2022/09/25 06:21:58;;;;;;;;;;;;;;;12.54;94.80;98933.03;8256119;28;19933;-77
2022/09/25 06:26:01;;;;;;;;;;;;;;;12.55;94.56;98926.94;8256365;28;20011;-78
2022/09/25 06:30:03;;;;;;;;;;;;;;;12.56;94.57;98926.06;8236232;28;20362;-77
2022/09/25 06:34:04;;;;;;;;;;;;;;;12.58;94.60;98931.25;8239407;28;19933;-76
2022/09/25 06:38:06;;;;;;;;;;;;;;;12.59;94.19;98931.22;8257915;28;19992;-77
2022/09/25 06:42:07;;;;;;;;;;;;;;;12.63;94.35;98939.81;8246400;28;19926;-76
2022/09/25 06:46:15;;;;;;;;;;;;;;;12.64;93.99;98933.72;8229393;28;19925;-77
2022/09/25 06:50:16;;;;;;;;;;;;;;;12.65;94.41;98935.44;8238678;28;19980;-77
2022/09/25 06:54:18;;;;;;;;;;;;;;;12.69;94.08;98944.91;8253513;28;19929;-76
2022/09/25 06:58:20;;;;;;;;;;;;;;;12.71;94.06;98943.97;8258232;28;19925;-78
2022/09/25 07:06:49;;;;;;;;;;;;;;;12.85;93.91;98945.44;8251619;28;19926;-77
2022/09/25 07:10:52;;;;;;;;;;;;;;;12.94;93.07;98945.28;8249661;28;19925;-78
2022/09/25 07:14:53;;;;;;;;;;;;;;;13.04;92.34;98940.72;8237306;28;20418;-75
2022/09/25 07:18:56;;;;;;;;;;;;;;;13.14;91.83;98940.50;8229902;28;20309;-77
2022/09/25 07:23:02;;;;;;;;;;;;;;;13.29;91.63;98936.72;8234454;28;19937;-76
2022/09/25 07:27:04;;;;;;;;;;;;;;;13.50;91.13;98943.19;8250245;28;19944;-77
2022/09/25 07:31:16;;;;;;;;;;;;;;;13.63;90.04;98939.38;8236261;28;19926;-77
2022/09/25 07:35:26;;;;;;;;;;;;;;;13.82;89.07;98934.56;8248052;28;19925;-77
2022/09/25 07:39:27;;;;;;;;;;;;;;;13.93;88.19;98940.38;8249629;28;19929;-77
2022/09/25 07:43:28;;;;;;;;;;;;;;;14.02;87.29;98937.56;8254935;28;19987;-77
2022/09/25 07:47:30;;;;;;;;;;;;;;;14.13;86.12;98932.03;8233288;28;20134;-76
2022/09/25 07:51:38;;;;;;;;;;;;;;;14.24;85.65;98937.84;8246177;28;20255;-75
2022/09/25 07:55:40;;;;;;;;;;;;;;;14.31;85.08;98941.13;8230811;28;19926;-77
2022/09/25 07:59:41;;;;;;;;;;;;;;;14.46;84.66;98940.75;8230542;28;20024;-77
2022/09/25 08:03:50;;;;;;;;;;;;;;;14.72;83.99;98932.19;8207146;28;19936;-77
2022/09/25 08:07:51;;;;;;;;;;;;;;;15.51;82.83;98937.66;8248573;28;19926;-77
2022/09/25 08:11:53;;;;;;;;;;;;;;;16.27;79.62;98935.13;8246216;28;20040;-75
2022/09/25 08:15:55;;;;;;;;;;;;;;;16.37;75.85;98937.44;8229395;28;19926;-77
2022/09/25 08:19:57;;;;;;;;;;;;;;;16.20;75.24;98933.66;8221456;28;19988;-77
2022/09/25 08:23:59;;;;;;;;;;;;;;;15.88;75.01;98941.72;8243109;28;19933;-77
2022/09/25 08:28:08;;;;;;;;;;;;;;;15.70;76.57;98943.19;8229726;28;19925;-77
2022/09/25 08:32:16;;;;;;;;;;;;;;;15.53;77.22;98935.84;8242516;28;19925;-77
2022/09/25 08:36:17;;;;;;;;;;;;;;;15.40;78.10;98940.59;8248637;28;20393;-77
2022/09/25 08:40:21;;;;;;;;;;;;;;;15.35;78.32;98932.03;8245774;28;19984;-76
2022/09/25 08:44:23;;;;;;;;;;;;;;;15.36;77.87;98928.50;8249306;28;19980;-77
2022/09/25 08:53:04;;;;;;;;;;;;;;;15.40;77.44;98937.13;8245137;28;20320;-77
2022/09/25 08:57:15;;;;;;;;;;;;;;;15.45;77.46;98939.63;8238192;28;20365;-77
2022/09/25 09:01:21;;;;;;;;;;;;;;;15.44;77.18;98941.38;8224506;28;19926;-77
2022/09/25 09:05:28;;;;;;;;;;;;;;;15.42;77.30;98935.31;8243049;28;19926;-77
2022/09/25 09:09:34;;;;;;;;;;;;;;;15.46;77.94;98930.84;8221517;28;19926;-77
2022/09/25 09:13:42;;;;;;;;;;;;;;;15.45;77.06;98934.38;8251580;28;20000;-77
2022/09/25 09:17:43;;;;;;;;;;;;;;;15.45;77.05;98948.31;8239177;28;19930;-76
2022/09/25 09:21:45;;;;;;;;;;;;;;;15.45;76.59;98945.69;8240959;28;19929;-77
2022/09/25 09:25:46;;;;;;;;;;;;;;;15.43;76.07;98944.88;8244627;28;19941;-77
2022/09/25 09:30:08;;;;;;;;;;;;;;;15.48;76.66;98955.22;8226626;28;19929;-77
2022/09/25 09:34:23;;;;;;;;;;;;;;;15.53;76.60;98956.78;8228625;28;19930;-77
2022/09/25 09:38:57;;;;;;;;;;;;;;;15.53;75.48;98950.69;8239848;28;19930;-77
2022/09/25 09:43:00;;;;;;;;;;;;;;;15.45;75.17;98953.56;8243850;28;20302;-77
2022/09/25 09:47:10;;;;;;;;;;;;;;;15.34;75.42;98953.88;8229245;28;19932;-78
2022/09/25 09:51:14;;;;;;;;;;;;;;;15.30;76.39;98954.03;8250187;28;19991;-77
2022/09/25 09:55:32;;;;;;;;;;;;;;;15.31;77.15;98948.75;8243399;28;19980;-78
2022/09/25 09:59:42;;;;;;;;;;;;;;;15.32;76.20;98960.06;8250525;28;19932;-78
2022/09/25 10:03:46;;;;;;;;;;;;;;;15.41;76.65;98957.16;8233103;28;20455;-78
2022/09/25 10:07:49;;;;;;;;;;;;;;;15.55;76.09;98946.25;8252913;28;19968;-78
2022/09/25 10:12:10;;;;;;;;;;;;;;;15.74;74.82;98943.94;8252342;28;20557;-78
2022/09/25 10:16:20;;;;;;;;;;;;;;;15.96;74.83;98948.41;8247532;28;19932;-77
2022/09/25 10:20:23;;;;;;;;;;;;;;;15.91;73.63;98955.56;8236055;28;19921;-78
2022/09/25 10:24:43;;;;;;;;;;;;;;;15.78;73.86;98959.47;8252651;28;20519;-77
2022/09/25 10:28:45;;;;;;;;;;;;;;;15.67;75.07;98948.53;8236761;28;19929;-77
2022/09/25 10:32:59;;;;;;;;;;;;;;;15.63;75.93;98952.16;8234743;28;19922;-78
2022/09/25 10:37:18;;;;;;;;;;;;;;;15.71;77.21;98955.38;8212384;28;19930;-77
2022/09/25 10:41:20;;;;;;;;;;;;;;;15.77;77.30;98959.53;8223335;28;20411;-78
2022/09/25 10:45:21;;;;;;;;;;;;;;;15.90;76.60;98966.09;8223977;28;20027;-78
2022/09/25 10:54:09;;;;;;;;;;;;;;;16.28;75.59;98960.41;8225781;28;19929;-78
2022/09/25 10:58:23;;;;;;;;;;;;;;;16.37;73.95;98958.41;8220679;28;19926;-78
2022/09/25 11:02:31;;;;;;;;;;;;;;;16.33;73.69;98970.72;8207799;28;19930;-78
2022/09/25 11:06:44;;;;;;;;;;;;;;;16.30;73.51;98961.22;8232309;28;19932;-78
2022/09/25 11:10:55;;;;;;;;;;;;;;;16.25;72.43;98955.28;8221123;28;21654;-78
2022/09/25 11:15:04;;;;;;;;;;;;;;;16.24;72.46;98960.59;8219246;28;19930;-78
2022/09/25 11:19:18;;;;;;;;;;;;;;;16.32;73.26;98956.78;8233705;28;19925;-78
2022/09/25 11:23:32;;;;;;;;;;;;;;;16.46;72.59;98966.78;8223577;28;19926;-78
2022/09/25 11:27:42;;;;;;;;;;;;;;;16.63;73.89;98964.44;8235575;28;19929;-78
2022/09/25 11:31:58;;;;;;;;;;;;;;;16.74;73.77;98965.84;8222907;28;20041;-78
2022/09/25 11:36:03;;;;;;;;;;;;;;;16.79;74.15;98962.16;8243475;28;19926;-77
2022/09/25 11:44:56;;;;;;;;;;;;;;;16.87;75.08;98956.59;8257318;28;19955;-77
2022/09/25 11:49:07;;;;;;;;;;;;;;;16.86;73.03;98958.38;8226969;28;19976;-77
2022/09/25 11:53:16;;;;;;;;;;;;;;;16.72;71.43;98959.81;8247185;28;19926;-77
2022/09/25 11:57:37;;;;;;;;;;;;;;;16.46;71.98;98960.69;8231494;28;19992;-77
2022/09/25 12:01:44;;;;;;;;;;;;;;;16.21;72.36;98958.06;8247543;28;20716;-77
2022/09/25 12:06:04;;;;;;;;;;;;;;;16.10;74.06;98970.66;8248249;28;19937;-77
2022/09/25 12:10:18;;;;;;;;;;;;;;;16.00;73.63;98972.75;8231997;28;20323;-77
2022/09/25 12:14:19;;;;;;;;;;;;;;;15.95;73.95;98967.66;8243934;28;20586;-77
2022/09/25 12:18:39;;;;;;;;;;;;;;;15.80;74.05;98977.75;8222552;28;19925;-76
2022/09/25 12:22:50;;;;;;;;;;;;;;;15.69;74.41;98978.13;8225735;28;20003;-77
2022/09/25 12:27:03;;;;;;;;;;;;;;;15.67;74.91;98972.94;8246009;28;19926;-78
2022/09/25 12:31:07;;;;;;;;;;;;;;;15.65;74.45;98981.75;8216769;28;19992;-78
2022/09/25 12:35:11;;;;;;;;;;;;;;;15.64;74.03;98977.41;8245918;28;20329;-76
2022/09/25 12:39:34;;;;;;;;;;;;;;;15.58;73.52;98972.31;8235692;28;19926;-77
2022/09/25 12:43:58;;;;;;;;;;;;;;;15.63;74.39;98980.94;8245329;28;20019;-78
2022/09/25 12:48:25;;;;;;;;;;;;;;;15.73;75.03;98979.72;8244420;28;19944;-78
2022/09/25 12:52:34;;;;;;;;;;;;;;;15.88;72.45;98978.38;8245907;28;20405;-77
2022/09/25 12:56:50;;;;;;;;;;;;;;;15.98;71.86;98992.91;8230765;28;20263;-78
2022/09/25 13:00:55;;;;;;;;;;;;;;;15.89;70.79;98982.72;8224232;28;19925;-77
2022/09/25 13:05:12;;;;;;;;;;;;;;;15.91;71.05;98987.00;8228971;28;19960;-77
2022/09/25 13:09:28;;;;;;;;;;;;;;;16.05;71.74;98985.69;8226481;28;20298;-79
2022/09/25 13:13:35;;;;;;;;;;;;;;;16.10;71.13;98984.63;8252473;28;20484;-78
2022/09/25 13:17:37;;;;;;;;;;;;;;;16.00;69.93;98984.09;8214098;28;20834;-79
2022/09/25 13:21:46;;;;;;;;;;;;;;;15.83;69.60;98989.00;8214458;28;19929;-79
2022/09/25 13:25:56;;;;;;;;;;;;;;;15.90;70.45;98987.03;8234999;28;19930;-78
2022/09/25 13:30:00;;;;;;;;;;;;;;;15.85;70.68;98986.34;8225221;28;19934;-78
2022/09/25 13:34:01;;;;;;;;;;;;;;;15.58;69.98;98995.88;8258728;28;19926;-77
2022/09/25 13:38:13;;;;;;;;;;;;;;;15.27;69.92;99006.44;8261884;28;19926;-79
2022/09/25 13:42:17;;;;;;;;;;;;;;;15.13;71.74;99006.84;8253087;28;20334;-78
2022/09/25 13:46:20;;;;;;;;;;;;;;;15.03;72.68;99010.59;8234610;28;19969;-78
2022/09/25 13:50:26;;;;;;;;;;;;;;;14.95;71.81;99012.59;8249617;28;19933;-78
2022/09/25 13:54:35;;;;;;;;;;;;;;;14.79;71.56;99010.41;8240601;28;19925;-78
2022/09/25 13:58:55;;;;;;;;;;;;;;;14.71;71.42;99007.13;8257113;28;19929;-78
2022/09/25 14:03:03;;;;;;;;;;;;;;;14.59;70.87;99004.84;8237627;28;19935;-78
2022/09/25 14:07:11;;;;;;;;;;;;;;;14.63;71.24;99009.09;8222128;28;21506;-78
2022/09/25 14:11:15;;;;;;;;;;;;;;;14.63;70.50;99001.25;8252370;28;19936;-78
2022/09/25 14:15:20;;;;;;;;;;;;;;;14.72;70.27;98998.41;8235377;28;19926;-78
2022/09/25 14:19:38;;;;;;;;;;;;;;;14.81;69.54;98998.13;8251239;28;19930;-78
2022/09/25 14:23:50;;;;;;;;;;;;;;;14.92;68.30;98997.84;8238518;28;19983;-78
2022/09/25 14:27:52;;;;;;;;;;;;;;;14.98;66.58;98992.44;8255998;28;20020;-78
2022/09/25 14:32:04;;;;;;;;;;;;;;;15.14;65.96;98995.47;8238725;28;19984;-78
2022/09/25 14:36:11;;;;;;;;;;;;;;;15.28;65.32;98995.06;8255225;28;19930;-78
2022/09/25 14:40:21;;;;;;;;;;;;;;;15.32;63.23;98988.84;8253752;28;19926;-78
2022/09/25 14:44:35;;;;;;;;;;;;;;;15.46;62.78;98991.03;8236250;28;20374;-78
2022/09/25 14:48:44;;;;;;;;;;;;;;;15.52;61.77;98991.69;8234043;28;19979;-78
2022/09/25 14:52:47;;;;;;;;;;;;;;;15.51;61.36;98982.13;8254592;28;19988;-78
2022/09/25 14:56:56;;;;;;;;;;;;;;;15.51;60.01;98984.75;8261710;28;19933;-78
2022/09/25 15:01:04;;;;;;;;;;;;;;;15.54;60.45;98989.88;8232981;28;19925;-78
2022/09/25 15:05:15;;;;;;;;;;;;;;;15.50;58.79;98992.66;8238479;28;19935;-78
2022/09/25 15:09:26;;;;;;;;;;;;;;;15.50;59.42;98984.81;8245240;28;19926;-78
2022/09/25 15:13:34;;;;;;;;;;;;;;;15.49;59.58;98988.31;8246729;28;19929;-79
2022/09/25 15:17:48;;;;;;;;;;;;;;;15.44;59.13;98993.72;8257170;28;19930;-78
2022/09/25 15:21:51;;;;;;;;;;;;;;;15.43;59.88;98989.34;8238738;28;19926;-77
2022/09/25 15:25:55;;;;;;;;;;;;;;;15.46;57.45;98986.66;8262269;28;19929;-78
2022/09/25 15:29:59;;;;;;;;;;;;;;;15.58;58.51;98986.25;8238257;28;20412;-78
2022/09/25 15:34:02;;;;;;;;;;;;;;;15.51;58.33;98974.28;8256107;28;19936;-78
2022/09/25 15:38:12;;;;;;;;;;;;;;;15.52;58.70;98980.38;8257123;28;20000;-79
2022/09/25 15:42:13;;;;;;;;;;;;;;;15.66;59.85;98989.53;8253818;28;19949;-78
2022/09/25 15:46:29;;;;;;;;;;;;;;;15.60;60.29;98976.63;8258272;28;19926;-78
2022/09/25 15:50:31;;;;;;;;;;;;;;;15.49;61.04;98976.09;8239889;28;19932;-78
2022/09/25 15:54:34;;;;;;;;;;;;;;;15.37;61.04;98982.56;8240955;28;20441;-78
2022/09/25 15:58:45;;;;;;;;;;;;;;;15.28;62.40;98987.22;8243182;28;20428;-77
2022/09/25 16:07:38;;;;;;;;;;;;;;;15.09;63.70;98992.13;8251416;28;19926;-78
2022/09/25 16:11:48;;;;;;;;;;;;;;;14.96;62.62;98994.25;8240716;28;19925;-78
2022/09/25 16:15:50;;;;;;;;;;;;;;;14.87;63.69;98983.16;8245527;28;19984;-78
2022/09/25 16:20:04;;;;;;;;;;;;;;;14.79;65.03;98986.00;8233836;28;20346;-78
2022/09/25 16:24:08;;;;;;;;;;;;;;;14.71;64.68;98991.44;8234844;28;20369;-78
2022/09/25 16:28:22;;;;;;;;;;;;;;;14.65;65.26;98990.75;8251692;28;20697;-78
2022/09/25 16:32:23;;;;;;;;;;;;;;;14.59;65.60;98990.94;8246967;28;19925;-78
2022/09/25 16:36:39;;;;;;;;;;;;;;;14.53;66.03;98984.09;8252274;28;19926;-77
2022/09/25 16:41:01;;;;;;;;;;;;;;;14.47;66.59;98984.28;8232441;28;19925;-78
2022/09/25 16:45:13;;;;;;;;;;;;;;;14.40;67.68;98977.47;8244800;28;20357;-78
2022/09/25 16:49:18;;;;;;;;;;;;;;;14.34;68.26;98980.22;8248200;28;19925;-78
2022/09/25 16:53:29;;;;;;;;;;;;;;;14.29;69.04;98977.75;8249442;28;20381;-78
2022/09/25 16:57:31;;;;;;;;;;;;;;;14.18;69.50;98990.22;8250084;28;19926;-78
2022/09/25 17:01:32;;;;;;;;;;;;;;;13.98;70.70;98982.88;8248394;28;19934;-78
2022/09/25 17:05:34;;;;;;;;;;;;;;;13.88;71.35;98981.41;8252312;28;19925;-78
2022/09/25 17:09:42;;;;;;;;;;;;;;;13.73;72.81;98984.38;8250372;28;19922;-78
2022/09/25 17:13:44;;;;;;;;;;;;;;;13.60;73.12;98984.66;8255670;28;19926;-78
2022/09/25 17:17:53;;;;;;;;;;;;;;;13.45;73.60;98981.53;8246927;28;19932;-78
2022/09/25 17:21:56;;;;;;;;;;;;;;;13.34;74.12;98983.53;8251859;28;19929;-78
2022/09/25 17:26:18;;;;;;;;;;;;;;;13.26;75.17;98981.09;8253603;28;19995;-78
2022/09/25 17:30:19;;;;;;;;;;;;;;;13.16;75.04;98985.63;8245999;28;20015;-78
2022/09/25 17:34:27;;;;;;;;;;;;;;;13.06;75.39;98991.91;8256763;28;19929;-78
2022/09/25 17:38:31;;;;;;;;;;;;;;;12.98;75.30;98988.63;8252086;28;19932;-77
2022/09/25 17:42:38;;;;;;;;;;;;;;;12.91;77.04;98987.00;8229716;28;19934;-77
2022/09/25 17:46:40;;;;;;;;;;;;;;;12.84;77.41;98986.28;8243399;28;19925;-78
2022/09/25 17:50:49;;;;;;;;;;;;;;;12.65;77.89;98985.78;8241055;28;19983;-77
2022/09/25 17:54:51;;;;;;;;;;;;;;;12.49;78.09;98997.38;8251604;28;19926;-77
2022/09/25 17:58:55;;;;;;;;;;;;;;;12.34;78.58;99005.47;8242604;28;19934;-77
2022/09/25 18:02:56;;;;;;;;;;;;;;;12.29;79.17;99012.50;8259478;28;19992;-77
2022/09/25 18:07:23;;;;;;;;;;;;;;;12.28;79.71;99008.19;8256111;28;19976;-77
2022/09/25 18:11:30;;;;;;;;;;;;;;;12.21;78.97;99003.94;8238737;28;20256;-78
2022/09/25 18:15:32;;;;;;;;;;;;;;;12.17;79.83;98999.69;8234047;28;19929;-78
2022/09/25 18:24:01;;;;;;;;;;;;;;;11.92;79.90;99009.66;8259106;28;19984;-77
2022/09/25 18:28:02;;;;;;;;;;;;;;;11.84;80.57;99011.50;8242468;28;20342;-77
2022/09/25 18:32:03;;;;;;;;;;;;;;;11.75;80.76;99009.88;8252490;28;19987;-77
2022/09/25 18:36:11;;;;;;;;;;;;;;;11.76;80.95;99016.81;8220216;28;20062;-77
2022/09/25 18:40:13;;;;;;;;;;;;;;;11.67;82.13;99017.81;8218138;28;20650;-77
2022/09/25 18:44:16;;;;;;;;;;;;;;;11.66;82.85;99018.66;8213916;28;19926;-77
2022/09/25 18:48:25;;;;;;;;;;;;;;;11.68;82.66;99016.94;8213339;28;19988;-77
2022/09/25 18:52:32;;;;;;;;;;;;;;;11.62;82.73;99021.34;8221860;28;19921;-78
2022/09/25 18:56:40;;;;;;;;;;;;;;;11.53;82.95;99019.75;8214233;28;19926;-77
2022/09/25 19:00:42;;;;;;;;;;;;;;;11.41;82.78;99023.38;8228439;28;19925;-77
2022/09/25 19:04:44;;;;;;;;;;;;;;;11.37;83.32;99023.44;8213253;28;19927;-77
2022/09/25 19:08:53;;;;;;;;;;;;;;;11.38;83.73;99025.16;8216016;28;19953;-77
2022/09/25 19:12:54;;;;;;;;;;;;;;;11.33;84.21;99022.63;8213833;28;19997;-78
2022/09/25 19:16:56;;;;;;;;;;;;;;;11.28;83.98;99024.41;8213597;28;20612;-77
2022/09/25 19:20:57;;;;;;;;;;;;;;;11.27;84.22;99019.22;8216649;28;19930;-77
2022/09/25 19:24:58;;;;;;;;;;;;;;;11.28;84.33;99033.94;8218462;28;19936;-77
2022/09/25 19:29:00;;;;;;;;;;;;;;;11.27;84.51;99029.63;8224473;28;19957;-77
2022/09/25 19:33:01;;;;;;;;;;;;;;;11.30;84.84;99033.03;8207027;28;19922;-77
2022/09/25 19:37:17;;;;;;;;;;;;;;;11.33;85.23;99029.56;8211180;28;19926;-77
2022/09/25 19:41:21;;;;;;;;;;;;;;;11.37;85.21;99028.63;8204778;28;19932;-77
2022/09/25 19:45:22;;;;;;;;;;;;;;;11.38;85.15;99031.22;8208341;28;19988;-77
2022/09/25 19:49:24;;;;;;;;;;;;;;;11.39;85.07;99032.06;8225454;28;19934;-77
2022/09/25 19:53:25;;;;;;;;;;;;;;;11.36;84.60;99027.78;8209098;28;19926;-77
2022/09/25 19:57:27;;;;;;;;;;;;;;;11.34;84.90;99033.88;8212939;28;19977;-77
2022/09/25 20:01:29;;;;;;;;;;;;;;;11.33;84.95;99033.03;8211397;28;19934;-77
2022/09/25 20:05:35;;;;;;;;;;;;;;;11.31;85.82;99031.31;8210187;28;19929;-77
2022/09/25 20:09:37;;;;;;;;;;;;;;;11.30;85.60;99024.38;8209208;28;19926;-77
2022/09/25 20:13:40;;;;;;;;;;;;;;;11.25;85.03;99024.44;8220394;28;20622;-77
2022/09/25 20:17:42;;;;;;;;;;;;;;;11.19;85.70;99029.75;8211284;28;19930;-77
2022/09/25 20:21:43;;;;;;;;;;;;;;;11.15;86.22;99030.66;8216490;28;19926;-78
2022/09/25 20:25:51;;;;;;;;;;;;;;;11.16;86.41;99032.38;8220970;28;20535;-77
2022/09/25 20:29:52;;;;;;;;;;;;;;;11.13;85.92;99016.81;8213007;28;20495;-77
2022/09/25 20:33:54;;;;;;;;;;;;;;;11.14;86.28;99018.56;8214863;28;20604;-77
2022/09/25 20:37:55;;;;;;;;;;;;;;;11.06;86.77;99018.63;8252702;28;19926;-78
2022/09/25 20:41:57;;;;;;;;;;;;;;;11.01;86.56;99024.78;8248242;28;20710;-77
2022/09/25 20:46:03;;;;;;;;;;;;;;;10.96;87.08;99017.03;8243801;28;20715;-77
2022/09/25 20:50:06;;;;;;;;;;;;;;;10.99;87.52;99010.94;8229442;28;19961;-77
2022/09/25 20:54:08;;;;;;;;;;;;;;;10.87;87.29;99009.34;8241654;28;20405;-78
2022/09/25 20:58:10;;;;;;;;;;;;;;;10.87;87.64;99014.53;8244933;28;19941;-78
2022/09/25 21:02:11;;;;;;;;;;;;;;;10.87;87.54;99004.16;8210195;28;19926;-78
2022/09/25 21:06:17;;;;;;;;;;;;;;;10.84;87.33;99001.59;8226727;28;19926;-78
2022/09/25 21:10:24;;;;;;;;;;;;;;;10.80;87.09;98998.19;8244300;28;19933;-79
2022/09/25 21:14:32;;;;;;;;;;;;;;;10.75;86.65;98989.56;8243476;28;19925;-78
2022/09/25 21:18:34;;;;;;;;;;;;;;;10.65;86.21;98993.16;8224593;28;19926;-78
2022/09/25 21:22:36;;;;;;;;;;;;;;;10.46;86.20;98984.72;8242495;28;19936;-78
2022/09/25 21:26:37;;;;;;;;;;;;;;;10.30;86.29;98985.75;8230084;28;20032;-78
2022/09/25 21:30:45;;;;;;;;;;;;;;;10.21;86.70;98983.22;8223666;28;19953;-77
2022/09/25 21:34:47;;;;;;;;;;;;;;;10.10;86.63;98985.03;8216542;28;19936;-78
2022/09/25 21:38:49;;;;;;;;;;;;;;;10.00;86.96;98989.44;8232470;28;19926;-78
2022/09/25 21:42:50;;;;;;;;;;;;;;;9.86;86.61;98986.09;8242126;28;19926;-77
2022/09/25 21:46:51;;;;;;;;;;;;;;;9.74;86.99;98978.44;8237946;28;19936;-78
2022/09/25 21:50:54;;;;;;;;;;;;;;;9.69;87.16;98978.44;8234242;28;19925;-78
2022/09/25 21:54:55;;;;;;;;;;;;;;;9.63;87.16;98968.13;8234395;28;19940;-78